createdAt,value
2022-10-01T00:02:02.423Z,11.45
2022-10-01T00:04:50.765Z,11.38
2022-10-01T00:07:43.277Z,12.68
2022-10-01T00:10:31.421Z,11.15
2022-10-01T00:13:21.034Z,10.93
2022-10-01T00:16:10.924Z,11.38
2022-10-01T00:19:00.760Z,10.90
2022-10-01T00:21:47.849Z,10.57
2022-10-01T00:24:40.726Z,11.10
2022-10-01T00:30:15.354Z,10.70
2022-10-01T00:33:04.864Z,10.38
2022-10-01T00:35:54.816Z,9.30
2022-10-01T00:38:43.248Z,10.20
2022-10-01T00:41:33.052Z,9.93
2022-10-01T00:44:36.437Z,9.35
2022-10-01T00:47:31.567Z,8.98
2022-10-01T00:50:28.594Z,8.57
2022-10-01T00:53:18.496Z,7.72
2022-10-01T00:56:07.079Z,8.05
2022-10-01T00:58:56.044Z,8.15
2022-10-01T01:01:43.294Z,7.93
2022-10-01T01:04:35.426Z,8.70
2022-10-01T01:07:25.506Z,6.47
2022-10-01T01:10:16.179Z,7.97
2022-10-01T01:13:15.266Z,9.18
2022-10-01T01:16:08.172Z,7.95
2022-10-01T01:19:20.724Z,8.20
2022-10-01T01:22:11.870Z,8.82
2022-10-01T01:25:06.678Z,7.97
2022-10-01T01:27:59.627Z,8.73
2022-10-01T01:30:50.171Z,9.00
2022-10-01T01:33:40.000Z,8.40
2022-10-01T01:36:32.301Z,9.27
2022-10-01T01:39:23.587Z,9.57
2022-10-01T01:42:16.763Z,9.68
2022-10-01T01:45:09.865Z,9.68
2022-10-01T01:48:00.317Z,9.68
2022-10-01T01:51:02.521Z,8.43
2022-10-01T01:53:52.332Z,9.75
2022-10-01T01:56:41.422Z,9.00
2022-10-01T01:59:29.121Z,8.15
2022-10-01T02:02:25.515Z,8.80
2022-10-01T02:05:17.793Z,8.93
2022-10-01T02:08:27.979Z,8.30
2022-10-01T02:11:22.561Z,8.02
2022-10-01T02:14:35.216Z,6.70
2022-10-01T02:17:38.415Z,7.35
2022-10-01T02:20:29.445Z,7.30
2022-10-01T02:23:25.417Z,7.50
2022-10-01T02:26:18.121Z,6.75
2022-10-01T02:29:08.931Z,7.28
2022-10-01T02:31:57.289Z,7.25
2022-10-01T02:34:47.962Z,7.07
2022-10-01T02:37:36.401Z,6.63
2022-10-01T02:40:29.608Z,6.43
2022-10-01T02:43:21.254Z,5.97
2022-10-01T02:46:17.632Z,6.40
2022-10-01T02:49:06.714Z,6.18
2022-10-01T02:52:01.057Z,6.43
2022-10-01T02:55:02.095Z,6.13
2022-10-01T02:57:52.260Z,5.50
2022-10-01T03:00:39.275Z,5.38
2022-10-01T03:03:27.309Z,5.35
2022-10-01T03:06:16.665Z,5.32
2022-10-01T03:09:03.995Z,5.13
2022-10-01T03:11:51.445Z,4.90
2022-10-01T03:14:39.679Z,4.93
2022-10-01T03:17:27.027Z,5.00
2022-10-01T03:20:24.843Z,4.70
2022-10-01T03:23:23.195Z,4.28
2022-10-01T03:26:10.274Z,4.25
2022-10-01T03:29:00.031Z,5.38
2022-10-01T03:31:47.134Z,5.18
2022-10-01T03:34:36.472Z,4.70
2022-10-01T03:37:23.661Z,5.15
2022-10-01T03:40:10.746Z,5.25
2022-10-01T03:43:00.553Z,5.07
2022-10-01T03:45:47.727Z,5.55
2022-10-01T03:48:34.842Z,5.13
2022-10-01T03:51:21.886Z,5.60
2022-10-01T03:54:09.431Z,5.75
2022-10-01T03:56:57.062Z,5.72
2022-10-01T03:59:46.830Z,4.55
2022-10-01T04:02:33.952Z,4.40
2022-10-01T04:05:21.212Z,4.68
2022-10-01T04:08:08.316Z,4.15
2022-10-01T04:10:55.401Z,3.30
2022-10-01T04:13:42.517Z,3.72
2022-10-01T04:16:31.557Z,3.40
2022-10-01T04:19:19.616Z,3.47
2022-10-01T04:22:09.095Z,3.67
2022-10-01T04:24:56.106Z,3.22
2022-10-01T04:28:04.270Z,3.67
2022-10-01T04:31:13.579Z,3.08
2022-10-01T04:34:01.451Z,3.17
2022-10-01T04:36:49.037Z,3.20
2022-10-01T04:39:36.114Z,2.55
2022-10-01T04:42:25.456Z,2.75
2022-10-01T04:45:13.482Z,3.38
2022-10-01T04:48:03.147Z,2.72
2022-10-01T04:50:50.251Z,2.50
2022-10-01T04:53:37.267Z,2.72
2022-10-01T04:56:24.563Z,2.95
2022-10-01T04:59:14.672Z,2.80
2022-10-01T05:02:02.174Z,2.75
2022-10-01T05:04:49.192Z,2.30
2022-10-01T05:07:42.125Z,2.28
2022-10-01T05:10:29.628Z,2.58
2022-10-01T05:13:16.671Z,2.58
2022-10-01T05:16:08.334Z,2.38
2022-10-01T05:18:55.571Z,2.10
2022-10-01T05:21:43.232Z,2.15
2022-10-01T05:24:30.309Z,2.33
2022-10-01T05:27:20.046Z,1.90
2022-10-01T05:30:11.851Z,2.28
2022-10-01T05:33:01.229Z,2.85
2022-10-01T05:35:52.124Z,2.17
2022-10-01T05:38:39.221Z,2.15
2022-10-01T05:41:26.212Z,2.42
2022-10-01T05:44:13.589Z,2.30
2022-10-01T05:47:03.614Z,2.78
2022-10-01T05:49:50.717Z,2.30
2022-10-01T05:52:38.431Z,2.35
2022-10-01T05:55:25.519Z,2.20
2022-10-01T05:58:14.418Z,2.25
2022-10-01T06:01:01.626Z,2.33
2022-10-01T06:03:52.847Z,2.13
2022-10-01T06:06:40.315Z,2.30
2022-10-01T06:09:27.368Z,1.95
2022-10-01T06:12:19.601Z,2.15
2022-10-01T06:15:08.504Z,2.05
2022-10-01T06:17:55.884Z,2.13
2022-10-01T06:20:42.903Z,2.13
2022-10-01T06:23:32.486Z,2.08
2022-10-01T06:26:24.328Z,1.70
2022-10-01T06:29:11.801Z,2.23
2022-10-01T06:32:01.235Z,2.15
2022-10-01T06:34:48.288Z,2.10
2022-10-01T06:37:39.985Z,2.33
2022-10-01T06:40:29.201Z,1.85
2022-10-01T06:43:16.170Z,2.13
2022-10-01T06:46:05.694Z,2.90
2022-10-01T06:48:53.093Z,1.98
2022-10-01T06:51:58.686Z,1.90
2022-10-01T06:54:48.005Z,2.00
2022-10-01T06:57:35.132Z,1.98
2022-10-01T07:00:25.352Z,2.03
2022-10-01T07:03:19.852Z,2.28
2022-10-01T07:06:11.532Z,2.22
2022-10-01T07:08:58.825Z,2.40
2022-10-01T07:11:45.948Z,2.17
2022-10-01T07:14:35.251Z,2.40
2022-10-01T07:17:22.735Z,1.90
2022-10-01T07:20:09.955Z,2.08
2022-10-01T07:22:59.459Z,2.28
2022-10-01T07:25:46.642Z,2.35
2022-10-01T07:28:33.729Z,1.90
2022-10-01T07:31:21.238Z,2.30
2022-10-01T07:34:09.576Z,2.25
2022-10-01T07:36:59.464Z,2.05
2022-10-01T07:39:46.483Z,2.15
2022-10-01T07:42:36.152Z,2.58
2022-10-01T07:45:25.145Z,2.28
2022-10-01T07:48:13.987Z,2.53
2022-10-01T07:51:03.766Z,2.40
2022-10-01T07:53:53.693Z,2.50
2022-10-01T07:56:41.680Z,2.58
2022-10-01T07:59:29.101Z,2.33
2022-10-01T08:02:17.767Z,2.15
2022-10-01T08:05:20.519Z,2.55
2022-10-01T08:08:08.867Z,3.42
2022-10-01T08:10:56.154Z,2.97
2022-10-01T08:13:45.261Z,2.30
2022-10-01T08:16:34.224Z,3.05
2022-10-01T08:19:21.882Z,2.55
2022-10-01T08:22:10.401Z,2.53
2022-10-01T08:24:57.517Z,3.05
2022-10-01T08:27:44.658Z,2.90
2022-10-01T08:30:34.216Z,3.53
2022-10-01T08:33:24.198Z,2.65
2022-10-01T08:36:11.688Z,3.47
2022-10-01T08:39:02.584Z,3.70
2022-10-01T08:42:05.264Z,3.67
2022-10-01T08:44:55.408Z,3.33
2022-10-01T08:48:08.881Z,3.50
2022-10-01T08:51:13.349Z,3.45
2022-10-01T08:54:34.306Z,3.38
2022-10-01T08:57:47.082Z,3.20
2022-10-01T09:00:39.230Z,3.63
2022-10-01T09:03:30.049Z,3.35
2022-10-01T09:06:20.248Z,3.80
2022-10-01T09:09:50.011Z,2.83
2022-10-01T09:13:24.447Z,3.30
2022-10-01T09:16:30.277Z,2.90
2022-10-01T09:19:58.852Z,2.70
2022-10-01T09:23:12.192Z,2.60
2022-10-01T09:25:59.961Z,2.40
2022-10-01T09:28:51.995Z,2.00
2022-10-01T09:31:45.260Z,2.20
2022-10-01T09:34:40.020Z,2.15
2022-10-01T09:37:57.327Z,2.88
2022-10-01T09:40:58.434Z,2.30
2022-10-01T09:43:45.917Z,2.13
2022-10-01T09:46:35.918Z,2.50
2022-10-01T09:49:29.462Z,2.10
2022-10-01T09:52:27.134Z,2.33
2022-10-01T09:55:37.725Z,1.80
2022-10-01T09:58:27.791Z,2.00
2022-10-01T10:01:23.752Z,2.30
2022-10-01T10:04:11.330Z,2.10
2022-10-01T10:07:05.746Z,3.05
2022-10-01T10:09:53.088Z,1.70
2022-10-01T10:12:42.070Z,2.60
2022-10-01T10:15:32.602Z,2.30
2022-10-01T10:18:35.641Z,2.47
2022-10-01T10:24:26.756Z,1.95
2022-10-01T10:27:30.209Z,2.08
2022-10-01T10:30:18.545Z,2.80
2022-10-01T10:33:08.122Z,2.88
2022-10-01T10:36:06.027Z,2.10
2022-10-01T10:38:54.972Z,1.77
2022-10-01T10:41:47.018Z,2.00
2022-10-01T10:44:39.886Z,1.27
2022-10-01T10:47:31.559Z,2.03
2022-10-01T10:50:32.359Z,2.03
2022-10-01T10:53:27.679Z,1.98
2022-10-01T10:56:22.961Z,2.08
2022-10-01T10:59:12.377Z,1.80
2022-10-01T11:02:04.715Z,1.70
2022-10-01T11:04:58.104Z,1.95
2022-10-01T11:07:47.362Z,1.65
2022-10-01T11:10:46.955Z,1.70
2022-10-01T11:13:36.310Z,1.65
2022-10-01T11:16:50.054Z,1.40
2022-10-01T11:19:58.687Z,1.20
2022-10-01T11:23:19.843Z,1.45
2022-10-01T11:26:37.553Z,1.42
2022-10-01T11:30:02.607Z,1.20
2022-10-01T11:33:22.169Z,1.33
2022-10-01T11:36:24.872Z,1.13
2022-10-01T11:39:18.557Z,1.33
2022-10-01T11:42:13.399Z,1.20
2022-10-01T11:45:09.710Z,0.95
2022-10-01T11:48:05.711Z,1.15
2022-10-01T11:51:00.121Z,1.00
2022-10-01T11:53:57.982Z,1.13
2022-10-01T11:57:09.529Z,0.95
2022-10-01T12:00:13.275Z,1.25
2022-10-01T12:03:02.610Z,1.10
2022-10-01T12:05:50.808Z,1.05
2022-10-01T12:08:48.331Z,1.60
2022-10-01T12:11:37.738Z,1.08
2022-10-01T12:14:43.051Z,0.80
2022-10-01T12:17:43.948Z,0.93
2022-10-01T12:20:49.403Z,0.90
2022-10-01T12:23:48.396Z,0.90
2022-10-01T12:27:02.239Z,0.93
2022-10-01T12:29:55.416Z,1.10
2022-10-01T12:33:04.786Z,1.50
2022-10-01T12:36:06.719Z,1.20
2022-10-01T12:39:14.994Z,1.27
2022-10-01T12:42:46.157Z,0.93
2022-10-01T12:45:39.539Z,1.08
2022-10-01T12:48:39.857Z,1.55
2022-10-01T12:51:38.887Z,1.50
2022-10-01T12:54:35.749Z,1.20
2022-10-01T12:57:33.044Z,1.63
2022-10-01T13:00:21.895Z,2.13
2022-10-01T13:03:38.624Z,2.33
2022-10-01T13:06:49.672Z,1.70
2022-10-01T13:09:55.779Z,1.30
2022-10-01T13:12:58.180Z,1.13
2022-10-01T13:15:49.491Z,1.80
2022-10-01T13:19:09.997Z,1.20
2022-10-01T13:22:33.943Z,1.50
2022-10-01T13:25:45.731Z,1.40
2022-10-01T13:29:11.070Z,1.20
2022-10-01T13:32:00.489Z,0.90
2022-10-01T13:34:49.718Z,1.40
2022-10-01T13:37:41.685Z,0.93
2022-10-01T13:40:33.994Z,0.68
2022-10-01T13:43:24.384Z,0.80
2022-10-01T13:46:12.123Z,1.00
2022-10-01T13:49:07.638Z,0.88
2022-10-01T13:51:55.315Z,0.82
2022-10-01T13:54:54.373Z,1.02
2022-10-01T13:57:42.612Z,0.63
2022-10-01T14:00:29.893Z,0.80
2022-10-01T14:03:42.920Z,1.73
2022-10-01T14:06:36.191Z,1.17
2022-10-01T14:09:30.930Z,0.90
2022-10-01T14:12:53.395Z,0.80
2022-10-01T14:16:00.607Z,0.95
2022-10-01T14:18:51.977Z,1.10
2022-10-01T14:22:06.487Z,0.70
2022-10-01T14:25:26.676Z,0.80
2022-10-01T14:28:32.952Z,0.73
2022-10-01T14:31:48.785Z,13.30
2022-10-01T14:34:47.266Z,0.98
2022-10-01T14:37:39.478Z,0.80
2022-10-01T14:40:31.943Z,0.93
2022-10-01T14:43:22.089Z,1.00
2022-10-01T14:46:27.552Z,0.90
2022-10-01T14:49:30.776Z,1.20
2022-10-01T14:52:26.320Z,2.30
2022-10-01T14:55:16.030Z,2.35
2022-10-01T14:58:05.145Z,1.65
2022-10-01T15:00:56.448Z,1.35
2022-10-01T15:03:44.146Z,1.00
2022-10-01T15:06:42.373Z,1.60
2022-10-01T15:09:33.627Z,2.15
2022-10-01T15:12:23.913Z,1.70
2022-10-01T15:15:24.330Z,1.60
2022-10-01T15:18:15.714Z,1.02
2022-10-01T15:21:07.514Z,1.55
2022-10-01T15:23:54.906Z,1.13
2022-10-01T15:26:44.562Z,2.53
2022-10-01T15:29:31.893Z,1.95
2022-10-01T15:32:23.858Z,1.30
2022-10-01T15:35:17.641Z,1.33
2022-10-01T15:38:05.802Z,1.00
2022-10-01T15:41:14.028Z,1.17
2022-10-01T15:44:41.469Z,1.00
2022-10-01T15:47:39.034Z,1.58
2022-10-01T15:50:32.754Z,1.98
2022-10-01T15:53:24.126Z,1.90
2022-10-01T15:56:18.934Z,1.60
2022-10-01T15:59:17.500Z,1.42
2022-10-01T16:02:09.938Z,1.38
2022-10-01T16:05:07.298Z,1.88
2022-10-01T16:07:58.228Z,1.02
2022-10-01T16:10:45.883Z,1.23
2022-10-01T16:13:40.916Z,1.58
2022-10-01T16:16:32.442Z,1.23
2022-10-01T16:19:32.462Z,1.42
2022-10-01T16:22:22.739Z,1.00
2022-10-01T16:25:24.940Z,1.10
2022-10-01T16:28:41.593Z,1.35
2022-10-01T16:31:32.675Z,1.58
2022-10-01T16:34:21.172Z,1.13
2022-10-01T16:37:09.316Z,1.30
2022-10-01T16:39:56.683Z,1.10
2022-10-01T16:42:46.295Z,1.20
2022-10-01T16:45:42.873Z,1.05
2022-10-01T16:48:29.948Z,1.45
2022-10-01T16:51:17.458Z,1.33
2022-10-01T16:54:07.888Z,1.20
2022-10-01T16:56:55.425Z,1.80
2022-10-01T16:59:43.051Z,1.60
2022-10-01T17:02:33.264Z,1.48
2022-10-01T17:05:26.607Z,1.60
2022-10-01T17:08:15.271Z,1.70
2022-10-01T17:11:03.310Z,1.77
2022-10-01T17:13:50.464Z,1.50
2022-10-01T17:16:40.416Z,1.48
2022-10-01T17:19:32.553Z,2.00
2022-10-01T17:22:20.461Z,1.87
2022-10-01T17:25:08.379Z,1.88
2022-10-01T17:27:55.684Z,2.30
2022-10-01T17:30:48.028Z,1.60
2022-10-01T17:33:39.126Z,1.70
2022-10-01T17:36:26.338Z,1.77
2022-10-01T17:39:13.514Z,1.73
2022-10-01T17:42:00.657Z,1.48
2022-10-01T17:44:50.348Z,1.73
2022-10-01T17:47:42.217Z,1.30
2022-10-01T17:50:31.794Z,1.87
2022-10-01T17:53:18.914Z,1.77
2022-10-01T17:56:10.112Z,1.60
2022-10-01T17:58:59.393Z,1.63
2022-10-01T18:01:46.499Z,1.70
2022-10-01T18:04:36.444Z,1.75
2022-10-01T18:07:24.993Z,1.83
2022-10-01T18:10:14.727Z,2.13
2022-10-01T18:13:01.989Z,1.88
2022-10-01T18:15:49.123Z,2.00
2022-10-01T18:21:44.137Z,1.80
2022-10-01T18:24:33.124Z,2.30
2022-10-01T18:27:20.682Z,1.90
2022-10-01T18:30:08.729Z,2.00
2022-10-01T18:32:57.328Z,2.20
2022-10-01T18:35:55.515Z,1.77
2022-10-01T18:38:43.059Z,2.30
2022-10-01T18:41:37.044Z,2.30
2022-10-01T18:44:24.894Z,2.35
2022-10-01T18:47:25.932Z,1.60
2022-10-01T18:50:33.963Z,4.53
2022-10-01T18:53:36.436Z,1.98
2022-10-01T18:56:31.903Z,1.77
2022-10-01T18:59:46.517Z,1.52
2022-10-01T19:02:57.935Z,1.38
2022-10-01T19:06:13.560Z,1.60
2022-10-01T19:09:36.235Z,2.40
2022-10-01T19:12:47.783Z,2.03
2022-10-01T19:16:01.367Z,1.95
2022-10-01T19:18:55.129Z,2.20
2022-10-01T19:21:58.385Z,2.33
2022-10-01T19:25:09.382Z,1.50
2022-10-01T19:28:05.369Z,2.60
2022-10-01T19:30:59.766Z,1.77
2022-10-01T19:34:01.910Z,2.30
2022-10-01T19:36:56.349Z,3.15
2022-10-01T19:39:45.796Z,2.25
2022-10-01T19:42:43.161Z,2.50
2022-10-01T19:45:46.608Z,2.45
2022-10-01T19:49:12.182Z,2.55
2022-10-01T19:52:18.606Z,2.35
2022-10-01T19:55:15.791Z,2.75
2022-10-01T19:58:09.793Z,2.53
2022-10-01T20:01:00.342Z,2.47
2022-10-01T20:03:58.531Z,2.10
2022-10-01T20:06:47.693Z,2.22
2022-10-01T20:10:12.242Z,2.60
2022-10-01T20:13:13.593Z,2.42
2022-10-01T20:16:11.597Z,1.83
2022-10-01T20:19:22.817Z,1.70
2022-10-01T20:22:23.238Z,1.60
2022-10-01T20:25:33.784Z,1.83
2022-10-01T20:28:38.393Z,2.00
2022-10-01T20:31:52.798Z,1.90
2022-10-01T20:34:42.895Z,1.70
2022-10-01T20:37:47.616Z,2.25
2022-10-01T20:40:49.545Z,1.63
2022-10-01T20:43:44.573Z,1.88
2022-10-01T20:46:46.014Z,1.15
2022-10-01T20:49:41.206Z,1.60
2022-10-01T20:53:06.906Z,1.48
2022-10-01T20:56:02.115Z,1.63
2022-10-01T20:58:57.363Z,1.40
2022-10-01T21:02:02.648Z,2.00
2022-10-01T21:05:15.968Z,1.90
2022-10-01T21:08:07.886Z,2.15
2022-10-01T21:10:59.668Z,2.30
2022-10-01T21:13:58.063Z,2.00
2022-10-01T21:16:57.107Z,2.22
2022-10-01T21:19:56.283Z,2.50
2022-10-01T21:22:49.432Z,2.10
2022-10-01T21:26:05.190Z,2.15
2022-10-01T21:28:55.351Z,2.45
2022-10-01T21:32:06.761Z,2.38
2022-10-01T21:35:07.409Z,2.38
2022-10-01T21:38:18.973Z,2.38
2022-10-01T21:41:38.708Z,2.72
2022-10-01T21:45:04.298Z,2.80
2022-10-01T21:48:00.584Z,2.80
2022-10-01T21:50:55.480Z,2.60
2022-10-01T21:54:12.460Z,2.33
2022-10-01T21:57:10.747Z,2.58
2022-10-01T22:00:23.001Z,3.35
2022-10-01T22:03:28.140Z,2.80
2022-10-01T22:06:25.032Z,2.00
2022-10-01T22:09:14.001Z,2.92
2022-10-01T22:12:06.033Z,3.25
2022-10-01T22:14:55.623Z,2.65
2022-10-01T22:17:44.883Z,2.30
2022-10-01T22:20:35.003Z,3.20
2022-10-01T22:23:27.377Z,3.00
2022-10-01T22:26:23.790Z,3.03
2022-10-01T22:29:18.205Z,3.05
2022-10-01T22:32:08.450Z,2.88
2022-10-01T22:35:03.183Z,3.35
2022-10-01T22:38:07.160Z,2.97
2022-10-01T22:41:03.420Z,3.83
2022-10-01T22:43:53.040Z,4.30
2022-10-01T22:46:45.229Z,3.97
2022-10-01T22:49:36.184Z,3.92
2022-10-01T22:52:31.069Z,4.53
2022-10-01T22:55:45.529Z,4.18
2022-10-01T22:58:42.020Z,4.78
2022-10-01T23:02:00.058Z,3.63
2022-10-01T23:05:56.187Z,3.88
2022-10-01T23:08:54.169Z,3.28
2022-10-01T23:11:59.055Z,3.30
2022-10-01T23:15:12.646Z,3.50
2022-10-01T23:18:22.451Z,3.65
2022-10-01T23:21:32.585Z,3.05
2022-10-01T23:24:42.274Z,3.97
2022-10-01T23:27:44.819Z,3.20
2022-10-01T23:31:10.673Z,3.53
2022-10-01T23:34:30.073Z,3.50
2022-10-01T23:37:29.551Z,3.10
2022-10-01T23:40:40.184Z,3.70
2022-10-01T23:43:31.224Z,3.25
2022-10-01T23:46:23.765Z,3.63
2022-10-01T23:49:16.867Z,3.13
2022-10-01T23:52:31.426Z,2.70
2022-10-01T23:55:44.393Z,3.10
2022-10-01T23:58:40.582Z,3.13
